createdAt,value
2022-11-05T00:00:03.072Z,80.56
2022-11-05T00:02:50.208Z,80.48
2022-11-05T00:05:35.394Z,80.22
2022-11-05T00:08:22.815Z,80.56
2022-11-05T00:10:52.229Z,80.51
2022-11-05T00:13:37.765Z,80.57
2022-11-05T00:16:23.171Z,80.23
2022-11-05T00:19:06.381Z,80.20
2022-11-05T00:21:52.980Z,80.47
2022-11-05T00:24:38.189Z,80.64
2022-11-05T00:27:04.910Z,80.89
2022-11-05T00:29:31.558Z,80.27
2022-11-05T00:31:58.312Z,80.42
2022-11-05T00:34:24.946Z,79.93
2022-11-05T00:36:51.636Z,80.14
2022-11-05T00:39:18.235Z,80.31
2022-11-05T00:42:04.838Z,80.03
2022-11-05T00:44:50.155Z,80.27
2022-11-05T00:47:35.575Z,80.34
2022-11-05T00:50:02.278Z,80.66
2022-11-05T00:52:47.470Z,80.37
2022-11-05T00:55:14.044Z,80.70
2022-11-05T00:57:40.574Z,80.57
2022-11-05T01:00:07.681Z,80.36
2022-11-05T01:02:34.359Z,80.66
2022-11-05T01:05:00.951Z,80.52
2022-11-05T01:07:28.261Z,80.72
2022-11-05T01:09:54.812Z,80.71
2022-11-05T01:12:21.404Z,80.83
2022-11-05T01:14:47.967Z,80.83
2022-11-05T01:17:14.631Z,80.83
2022-11-05T01:19:41.169Z,81.12
2022-11-05T01:22:07.917Z,81.07
2022-11-05T01:24:34.462Z,80.70
2022-11-05T01:27:02.286Z,81.01
2022-11-05T01:29:28.851Z,80.69
2022-11-05T01:31:55.451Z,80.48
2022-11-05T01:34:22.036Z,80.47
2022-11-05T01:36:48.632Z,80.61
2022-11-05T01:39:17.992Z,80.49
2022-11-05T01:41:44.635Z,80.68
2022-11-05T01:45:05.871Z,81.33
2022-11-05T01:47:46.948Z,81.39
2022-11-05T01:50:13.452Z,80.85
2022-11-05T01:52:40.017Z,81.17
2022-11-05T01:55:09.434Z,81.06
2022-11-05T01:57:36.156Z,81.26
2022-11-05T02:00:03.848Z,80.82
2022-11-05T02:02:39.757Z,80.77
2022-11-05T02:05:11.827Z,80.75
2022-11-05T02:07:39.419Z,81.11
2022-11-05T02:10:09.468Z,81.04
2022-11-05T02:12:39.718Z,81.41
2022-11-05T02:15:06.976Z,81.13
2022-11-05T02:18:12.992Z,81.21
2022-11-05T02:21:14.953Z,81.48
2022-11-05T02:24:32.302Z,81.31
2022-11-05T02:27:07.952Z,81.31
2022-11-05T02:30:05.495Z,81.73
2022-11-05T02:32:34.906Z,81.57
2022-11-05T02:35:19.197Z,81.42
2022-11-05T02:37:52.393Z,81.62
2022-11-05T02:40:19.224Z,81.25
2022-11-05T02:43:15.335Z,81.62
2022-11-05T02:46:00.130Z,81.85
2022-11-05T02:48:30.456Z,81.53
2022-11-05T02:51:27.552Z,81.69
2022-11-05T02:54:06.202Z,81.68
2022-11-05T02:56:36.686Z,81.41
2022-11-05T02:59:03.410Z,81.53
2022-11-05T03:01:30.110Z,81.50
2022-11-05T03:04:03.518Z,82.09
2022-11-05T03:06:48.584Z,82.50
2022-11-05T03:09:15.086Z,82.06
2022-11-05T03:11:54.677Z,82.22
2022-11-05T03:14:41.963Z,82.14
2022-11-05T03:17:31.823Z,81.61
2022-11-05T03:20:11.416Z,81.48
2022-11-05T03:22:53.913Z,81.54
2022-11-05T03:25:25.766Z,81.30
2022-11-05T03:27:58.487Z,81.61
2022-11-05T03:30:25.597Z,81.56
2022-11-05T03:32:59.344Z,81.74
2022-11-05T03:35:30.677Z,81.65
2022-11-05T03:38:01.800Z,81.83
2022-11-05T03:40:34.928Z,81.52
2022-11-05T03:43:06.637Z,81.85
2022-11-05T03:45:40.468Z,81.96
2022-11-05T03:48:10.769Z,81.76
2022-11-05T03:50:41.404Z,82.11
2022-11-05T03:53:16.987Z,82.07
2022-11-05T03:55:54.471Z,81.99
2022-11-05T03:58:22.987Z,81.94
2022-11-05T04:00:50.805Z,81.75
2022-11-05T04:03:17.350Z,81.44
2022-11-05T04:05:44.099Z,81.68
2022-11-05T04:08:29.308Z,81.85
2022-11-05T04:11:21.729Z,82.21
2022-11-05T04:13:48.356Z,81.61
2022-11-05T04:16:33.392Z,82.08
2022-11-05T04:19:00.249Z,81.66
2022-11-05T04:21:45.262Z,81.45
2022-11-05T04:24:12.745Z,81.79
2022-11-05T04:26:42.055Z,81.46
2022-11-05T04:29:27.467Z,81.62
2022-11-05T04:31:54.747Z,81.67
2022-11-05T04:34:24.962Z,81.71
2022-11-05T04:36:53.046Z,81.72
2022-11-05T04:39:20.654Z,81.65
2022-11-05T04:41:50.412Z,81.14
2022-11-05T04:44:17.136Z,81.08
2022-11-05T04:46:43.847Z,81.14
2022-11-05T04:49:10.469Z,81.26
2022-11-05T04:51:37.103Z,81.52
2022-11-05T04:54:03.792Z,81.32
2022-11-05T04:56:30.347Z,81.41
2022-11-05T04:58:56.909Z,82.07
2022-11-05T05:01:25.332Z,82.24
2022-11-05T05:03:53.838Z,81.92
2022-11-05T05:06:21.218Z,82.03
2022-11-05T05:08:49.230Z,81.99
2022-11-05T05:11:17.710Z,82.10
2022-11-05T05:13:44.296Z,82.10
2022-11-05T05:16:36.993Z,81.83
2022-11-05T05:19:03.557Z,81.81
2022-11-05T05:21:39.128Z,81.47
2022-11-05T05:24:08.632Z,81.54
2022-11-05T05:26:37.017Z,81.45
2022-11-05T05:29:04.960Z,80.99
2022-11-05T05:31:31.780Z,81.08
2022-11-05T05:33:58.524Z,81.35
2022-11-05T05:36:25.093Z,81.04
2022-11-05T05:38:51.692Z,81.24
2022-11-05T05:41:18.447Z,81.71
2022-11-05T05:43:45.269Z,80.78
2022-11-05T05:46:14.976Z,81.42
2022-11-05T05:48:42.480Z,81.11
2022-11-05T05:51:11.443Z,81.52
2022-11-05T05:53:38.604Z,81.12
2022-11-05T05:56:05.943Z,81.73
2022-11-05T05:58:38.094Z,82.11
2022-11-05T06:01:17.215Z,81.56
2022-11-05T06:03:47.391Z,81.70
2022-11-05T06:06:15.757Z,81.42
2022-11-05T06:08:42.683Z,81.16
2022-11-05T06:11:09.478Z,81.01
2022-11-05T06:13:39.524Z,81.09
2022-11-05T06:16:08.329Z,81.16
2022-11-05T06:18:36.487Z,81.20
2022-11-05T06:21:03.040Z,81.34
2022-11-05T06:23:33.701Z,81.48
2022-11-05T06:26:05.071Z,81.47
2022-11-05T06:28:31.589Z,81.71
2022-11-05T06:30:58.211Z,81.22
2022-11-05T06:33:25.055Z,81.19
2022-11-05T06:35:52.853Z,81.06
2022-11-05T06:38:19.382Z,80.73
2022-11-05T06:40:46.283Z,81.12
2022-11-05T06:43:13.200Z,80.72
2022-11-05T06:45:39.976Z,81.06
2022-11-05T06:48:06.860Z,81.10
2022-11-05T06:50:33.604Z,81.00
2022-11-05T06:53:02.589Z,81.10
2022-11-05T06:55:31.062Z,80.62
2022-11-05T06:57:57.619Z,80.64
2022-11-05T07:00:24.776Z,80.51
2022-11-05T07:02:51.367Z,80.76
2022-11-05T07:05:18.259Z,80.42
2022-11-05T07:07:45.844Z,80.36
2022-11-05T07:10:17.952Z,80.44
2022-11-05T07:12:44.504Z,80.57
2022-11-05T07:15:12.270Z,79.74
2022-11-05T07:17:40.035Z,79.73
2022-11-05T07:20:08.135Z,79.58
2022-11-05T07:22:35.468Z,79.21
2022-11-05T07:25:03.900Z,79.16
2022-11-05T07:27:30.433Z,79.75
2022-11-05T07:29:57.016Z,78.77
2022-11-05T07:32:23.622Z,78.82
2022-11-05T07:34:50.172Z,78.82
2022-11-05T07:37:16.829Z,78.66
2022-11-05T07:39:43.432Z,78.23
2022-11-05T07:42:15.640Z,78.58
2022-11-05T07:44:43.668Z,78.27
2022-11-05T07:47:10.206Z,78.45
2022-11-05T07:49:36.727Z,78.73
2022-11-05T07:52:03.305Z,78.88
2022-11-05T07:54:29.879Z,79.08
2022-11-05T07:56:56.618Z,78.58
2022-11-05T07:59:23.226Z,78.54
2022-11-05T08:01:50.081Z,78.28
2022-11-05T08:04:16.785Z,78.54
2022-11-05T08:06:43.297Z,77.98
2022-11-05T08:09:09.899Z,78.42
2022-11-05T08:11:36.580Z,78.18
2022-11-05T08:14:03.527Z,78.33
2022-11-05T08:16:30.081Z,78.57
2022-11-05T08:18:58.678Z,78.84
2022-11-05T08:21:25.188Z,78.52
2022-11-05T08:23:51.798Z,78.93
2022-11-05T08:26:20.022Z,78.68
2022-11-05T08:28:46.578Z,78.78
2022-11-05T08:31:15.300Z,78.14
2022-11-05T08:33:42.685Z,77.96
2022-11-05T08:36:09.253Z,78.07
2022-11-05T08:38:35.832Z,77.53
2022-11-05T08:41:08.268Z,76.92
2022-11-05T08:43:34.817Z,76.70
2022-11-05T08:46:01.780Z,76.75
2022-11-05T08:48:28.554Z,76.68
2022-11-05T08:50:55.223Z,76.34
2022-11-05T08:53:21.838Z,76.06
2022-11-05T08:55:50.023Z,74.66
2022-11-05T08:58:17.262Z,74.55
2022-11-05T09:00:48.857Z,75.05
2022-11-05T09:03:16.380Z,75.55
2022-11-05T09:05:43.807Z,75.20
2022-11-05T09:08:19.540Z,75.00
2022-11-05T09:10:47.423Z,74.57
2022-11-05T09:13:18.744Z,73.84
2022-11-05T09:15:47.697Z,74.34
2022-11-05T09:18:14.817Z,74.00
2022-11-05T09:20:41.833Z,73.55
2022-11-05T09:23:09.796Z,72.88
2022-11-05T09:25:36.588Z,72.75
2022-11-05T09:28:22.577Z,69.67
2022-11-05T09:30:51.018Z,71.90
2022-11-05T09:33:19.698Z,71.76
2022-11-05T09:35:46.437Z,72.50
2022-11-05T09:38:13.244Z,71.62
2022-11-05T09:40:43.239Z,71.20
2022-11-05T09:43:18.702Z,71.65
2022-11-05T09:45:48.457Z,72.44
2022-11-05T09:48:17.351Z,72.86
2022-11-05T09:50:46.278Z,72.76
2022-11-05T09:53:19.382Z,71.91
2022-11-05T09:55:49.951Z,72.75
2022-11-05T09:58:20.484Z,72.57
2022-11-05T10:00:52.372Z,71.90
2022-11-05T10:03:23.909Z,71.40
2022-11-05T10:05:53.256Z,70.58
2022-11-05T10:08:25.685Z,71.43
2022-11-05T10:11:02.345Z,70.19
2022-11-05T10:13:46.945Z,69.46
2022-11-05T10:16:41.230Z,68.85
2022-11-05T10:19:13.455Z,69.40
2022-11-05T10:24:28.443Z,68.92
2022-11-05T10:26:56.054Z,68.85
2022-11-05T10:29:29.582Z,68.38
2022-11-05T10:31:58.308Z,68.89
2022-11-05T10:34:33.309Z,67.56
2022-11-05T10:37:00.228Z,68.24
2022-11-05T10:39:29.324Z,68.13
2022-11-05T10:42:04.952Z,66.20
2022-11-05T10:44:53.163Z,65.69
2022-11-05T10:47:48.522Z,63.56
2022-11-05T10:50:21.410Z,64.67
2022-11-05T10:53:01.695Z,65.31
2022-11-05T10:55:32.195Z,61.14
2022-11-05T10:58:21.098Z,59.12
2022-11-05T11:00:56.428Z,61.94
2022-11-05T11:03:45.908Z,60.44
2022-11-05T11:06:26.024Z,62.42
2022-11-05T11:08:55.425Z,63.72
2022-11-05T11:11:28.895Z,62.15
2022-11-05T11:14:04.805Z,63.12
2022-11-05T11:16:46.002Z,61.67
2022-11-05T11:19:29.546Z,59.56
2022-11-05T11:22:05.170Z,62.22
2022-11-05T11:24:38.771Z,62.21
2022-11-05T11:27:13.567Z,61.76
2022-11-05T11:29:48.154Z,63.19
2022-11-05T11:32:18.687Z,62.73
2022-11-05T11:34:48.758Z,62.93
2022-11-05T11:37:24.306Z,61.90
2022-11-05T11:40:03.253Z,61.29
2022-11-05T11:42:36.615Z,61.38
2022-11-05T11:45:19.173Z,61.21
2022-11-05T11:47:48.805Z,62.89
2022-11-05T11:50:33.747Z,61.34
2022-11-05T11:53:19.636Z,60.31
2022-11-05T11:55:55.287Z,58.76
2022-11-05T11:58:23.719Z,62.86
2022-11-05T12:01:02.991Z,62.58
2022-11-05T12:03:55.552Z,60.12
2022-11-05T12:06:36.416Z,62.11
2022-11-05T12:09:29.096Z,60.05
2022-11-05T12:12:04.894Z,62.00
2022-11-05T12:14:53.111Z,61.44
2022-11-05T12:17:53.503Z,60.43
2022-11-05T12:20:48.654Z,61.30
2022-11-05T12:23:49.883Z,60.06
2022-11-05T12:26:26.871Z,59.17
2022-11-05T12:29:23.124Z,58.42
2022-11-05T12:32:21.872Z,58.14
2022-11-05T12:35:15.326Z,58.75
2022-11-05T12:37:54.769Z,57.14
2022-11-05T12:40:27.347Z,55.03
2022-11-05T12:43:32.899Z,57.24
2022-11-05T12:45:59.644Z,59.71
2022-11-05T12:48:41.552Z,57.07
2022-11-05T12:51:27.695Z,57.80
2022-11-05T12:53:59.225Z,58.08
2022-11-05T12:56:25.749Z,59.55
2022-11-05T12:59:12.961Z,56.33
2022-11-05T13:01:51.404Z,56.22
2022-11-05T13:04:46.374Z,54.32
2022-11-05T13:07:18.257Z,58.08
2022-11-05T13:09:52.002Z,58.29
2022-11-05T13:12:22.626Z,56.60
2022-11-05T13:14:56.031Z,56.91
2022-11-05T13:17:28.080Z,57.06
2022-11-05T13:19:58.887Z,55.41
2022-11-05T13:22:44.410Z,51.64
2022-11-05T13:25:21.580Z,55.91
2022-11-05T13:28:06.682Z,57.19
2022-11-05T13:30:38.182Z,56.69
2022-11-05T13:33:12.603Z,58.04
2022-11-05T13:35:42.127Z,58.51
2022-11-05T13:38:44.597Z,59.23
2022-11-05T13:41:24.985Z,58.55
2022-11-05T13:44:27.767Z,59.14
2022-11-05T13:47:16.031Z,59.57
2022-11-05T13:50:14.559Z,59.53
2022-11-05T13:53:21.158Z,60.13
2022-11-05T13:55:50.535Z,59.89
2022-11-05T13:58:56.386Z,60.31
2022-11-05T14:01:49.815Z,60.28
2022-11-05T14:04:47.734Z,60.72
2022-11-05T14:07:28.057Z,61.18
2022-11-05T14:10:01.050Z,61.59
2022-11-05T14:12:38.733Z,61.96
2022-11-05T14:15:28.400Z,62.31
2022-11-05T14:18:24.168Z,61.50
2022-11-05T14:20:59.900Z,62.56
2022-11-05T14:23:27.616Z,62.90
2022-11-05T14:26:12.057Z,62.52
2022-11-05T14:28:42.379Z,63.09
2022-11-05T14:31:18.537Z,62.41
2022-11-05T14:34:14.512Z,62.46
2022-11-05T14:36:43.105Z,62.76
2022-11-05T14:39:20.586Z,62.36
2022-11-05T14:42:11.809Z,62.41
2022-11-05T14:44:59.714Z,62.22
2022-11-05T14:47:33.393Z,62.95
2022-11-05T14:50:17.851Z,63.94
2022-11-05T14:52:53.423Z,65.07
2022-11-05T14:55:28.477Z,65.38
2022-11-05T14:57:55.466Z,65.20
2022-11-05T15:00:40.747Z,65.91
2022-11-05T15:03:49.304Z,66.75
2022-11-05T15:06:21.960Z,66.67
2022-11-05T15:08:48.509Z,65.87
2022-11-05T15:11:21.955Z,66.52
2022-11-05T15:13:54.581Z,67.17
2022-11-05T15:16:48.748Z,67.05
2022-11-05T15:19:27.221Z,66.58
2022-11-05T15:21:56.765Z,66.53
2022-11-05T15:24:28.017Z,66.94
2022-11-05T15:27:07.444Z,66.99
2022-11-05T15:29:34.690Z,67.25
2022-11-05T15:32:02.770Z,67.42
2022-11-05T15:34:32.373Z,66.87
2022-11-05T15:37:02.410Z,68.07
2022-11-05T15:39:47.251Z,67.11
2022-11-05T15:42:15.213Z,67.22
2022-11-05T15:44:44.362Z,67.33
2022-11-05T15:47:19.784Z,67.74
2022-11-05T15:49:50.556Z,68.86
2022-11-05T15:52:21.109Z,68.45
2022-11-05T15:55:06.759Z,70.07
2022-11-05T15:57:37.953Z,69.60
2022-11-05T16:00:14.834Z,69.89
2022-11-05T16:03:02.716Z,69.60
2022-11-05T16:05:33.050Z,69.49
2022-11-05T16:08:03.391Z,69.68
2022-11-05T16:10:36.847Z,71.04
2022-11-05T16:13:26.549Z,71.28
2022-11-05T16:15:58.162Z,70.36
2022-11-05T16:18:31.685Z,70.81
2022-11-05T16:21:12.352Z,70.24
2022-11-05T16:23:51.177Z,70.56
2022-11-05T16:29:33.903Z,71.16
2022-11-05T16:32:04.036Z,71.09
2022-11-05T16:34:42.798Z,71.19
2022-11-05T16:37:16.226Z,71.15
2022-11-05T16:39:42.786Z,71.45
2022-11-05T16:42:27.622Z,72.31
2022-11-05T16:44:55.470Z,71.97
2022-11-05T16:47:22.646Z,71.67
2022-11-05T16:49:49.756Z,72.33
2022-11-05T16:52:18.861Z,72.82
2022-11-05T16:54:45.531Z,73.14
2022-11-05T16:57:32.329Z,73.80
2022-11-05T17:00:00.421Z,72.88
2022-11-05T17:02:28.356Z,73.29
2022-11-05T17:04:55.116Z,72.71
2022-11-05T17:07:21.742Z,72.79
2022-11-05T17:09:48.300Z,73.14
2022-11-05T17:12:15.514Z,73.25
2022-11-05T17:14:42.137Z,73.00
2022-11-05T17:17:08.758Z,73.18
2022-11-05T17:19:35.276Z,73.41
2022-11-05T17:22:02.057Z,73.42
2022-11-05T17:24:28.644Z,73.66
2022-11-05T17:26:55.223Z,73.87
2022-11-05T17:29:21.840Z,74.31
2022-11-05T17:31:48.967Z,74.25
2022-11-05T17:34:15.702Z,74.50
2022-11-05T17:36:42.395Z,74.66
2022-11-05T17:39:10.875Z,74.83
2022-11-05T17:41:37.478Z,74.83
2022-11-05T17:44:04.028Z,75.03
2022-11-05T17:46:30.608Z,75.09
2022-11-05T17:48:57.160Z,74.67
2022-11-05T17:51:23.695Z,75.02
2022-11-05T17:53:50.337Z,75.06
2022-11-05T17:56:28.838Z,75.25
2022-11-05T17:59:00.501Z,74.97
2022-11-05T18:01:31.435Z,75.40
2022-11-05T18:04:01.281Z,75.18
2022-11-05T18:06:32.056Z,74.78
2022-11-05T18:08:58.640Z,74.98
2022-11-05T18:11:25.196Z,74.75
2022-11-05T18:13:51.793Z,74.94
2022-11-05T18:16:18.370Z,75.33
2022-11-05T18:18:44.945Z,75.07
2022-11-05T18:21:11.577Z,74.56
2022-11-05T18:23:38.122Z,75.14
2022-11-05T18:26:15.188Z,76.01
2022-11-05T18:28:42.644Z,75.12
2022-11-05T18:31:20.404Z,75.75
2022-11-05T18:33:48.415Z,75.89
2022-11-05T18:36:23.556Z,76.21
2022-11-05T18:38:50.361Z,75.91
2022-11-05T18:41:17.655Z,76.01
2022-11-05T18:43:44.312Z,76.40
2022-11-05T18:46:29.340Z,76.26
2022-11-05T18:48:59.584Z,76.24
2022-11-05T18:51:26.870Z,76.47
2022-11-05T18:53:57.051Z,76.73
2022-11-05T18:56:24.024Z,76.55
2022-11-05T18:59:14.723Z,76.17
2022-11-05T19:01:40.239Z,76.60
2022-11-05T19:04:07.006Z,76.42
2022-11-05T19:06:34.717Z,76.84
2022-11-05T19:09:02.759Z,76.64
2022-11-05T19:11:29.585Z,76.27
2022-11-05T19:13:57.177Z,76.56
2022-11-05T19:16:25.625Z,76.87
2022-11-05T19:18:52.607Z,76.29
2022-11-05T19:21:22.591Z,76.61
2022-11-05T19:23:50.300Z,76.54
2022-11-05T19:26:28.558Z,77.37
2022-11-05T19:28:58.704Z,76.66
2022-11-05T19:31:26.176Z,76.95
2022-11-05T19:33:53.660Z,76.78
2022-11-05T19:36:21.844Z,76.98
2022-11-05T19:38:53.409Z,77.13
2022-11-05T19:41:21.483Z,77.34
2022-11-05T19:43:48.121Z,77.15
2022-11-05T19:46:17.466Z,77.23
2022-11-05T19:48:44.924Z,77.35
2022-11-05T19:51:17.545Z,77.53
2022-11-05T19:53:44.193Z,77.74
2022-11-05T19:56:19.281Z,78.22
2022-11-05T19:58:46.587Z,77.48
2022-11-05T20:01:14.532Z,77.57
2022-11-05T20:03:41.981Z,77.88
2022-11-05T20:06:18.633Z,78.11
2022-11-05T20:09:07.137Z,77.86
2022-11-05T20:11:31.917Z,77.82
2022-11-05T20:13:58.754Z,77.78
2022-11-05T20:16:28.682Z,77.86
2022-11-05T20:18:57.112Z,77.77
2022-11-05T20:21:23.734Z,77.56
2022-11-05T20:23:50.531Z,77.91
2022-11-05T20:26:17.280Z,77.49
2022-11-05T20:28:43.987Z,77.18
2022-11-05T20:31:13.487Z,77.82
2022-11-05T20:33:41.035Z,78.17
2022-11-05T20:36:13.553Z,78.18
2022-11-05T20:38:40.275Z,77.81
2022-11-05T20:41:11.978Z,78.92
2022-11-05T20:43:42.820Z,78.44
2022-11-05T20:46:13.366Z,78.28
2022-11-05T20:48:40.543Z,78.62
2022-11-05T20:51:15.298Z,78.17
2022-11-05T20:53:42.655Z,78.23
2022-11-05T20:56:23.170Z,78.08
2022-11-05T20:58:50.644Z,78.40
2022-11-05T21:01:18.652Z,77.94
2022-11-05T21:03:46.779Z,77.74
2022-11-05T21:06:13.802Z,77.45
2022-11-05T21:08:40.468Z,77.90
2022-11-05T21:11:08.136Z,78.08
2022-11-05T21:13:34.866Z,78.05
2022-11-05T21:16:02.438Z,78.40
2022-11-05T21:18:31.311Z,78.63
2022-11-05T21:20:59.804Z,78.18
2022-11-05T21:23:29.461Z,79.18
2022-11-05T21:25:56.101Z,78.75
2022-11-05T21:28:23.319Z,78.92
2022-11-05T21:30:50.151Z,78.52
2022-11-05T21:33:18.452Z,79.08
2022-11-05T21:35:48.095Z,78.45
2022-11-05T21:38:16.974Z,78.85
2022-11-05T21:40:44.455Z,79.13
2022-11-05T21:43:11.540Z,79.19
2022-11-05T21:45:39.654Z,79.28
2022-11-05T21:48:07.539Z,78.94
2022-11-05T21:50:53.536Z,79.21
2022-11-05T21:53:38.698Z,79.67
2022-11-05T21:56:35.954Z,79.44
2022-11-05T21:59:24.627Z,79.68
2022-11-05T22:01:51.557Z,79.42
2022-11-05T22:04:19.819Z,79.54
2022-11-05T22:06:46.420Z,79.22
2022-11-05T22:09:13.041Z,79.16
2022-11-05T22:11:39.624Z,78.94
2022-11-05T22:14:06.248Z,79.51
2022-11-05T22:16:32.847Z,79.21
2022-11-05T22:18:59.828Z,80.04
2022-11-05T22:21:26.427Z,79.82
2022-11-05T22:23:53.638Z,80.09
2022-11-05T22:26:20.605Z,79.92
2022-11-05T22:28:48.000Z,79.72
2022-11-05T22:31:16.324Z,79.92
2022-11-05T22:33:43.613Z,79.43
2022-11-05T22:36:11.276Z,79.60
2022-11-05T22:38:38.548Z,79.33
2022-11-05T22:41:14.982Z,79.65
2022-11-05T22:43:41.677Z,78.91
2022-11-05T22:46:11.799Z,79.24
2022-11-05T22:48:39.478Z,79.58
2022-11-05T22:51:14.470Z,79.26
2022-11-05T22:53:41.391Z,79.26
2022-11-05T22:56:11.214Z,79.25
2022-11-05T22:58:38.425Z,79.43
2022-11-05T23:01:06.119Z,79.06
2022-11-05T23:03:33.230Z,78.88
2022-11-05T23:06:02.145Z,79.03
2022-11-05T23:08:47.964Z,78.62
2022-11-05T23:11:38.044Z,78.87
2022-11-05T23:14:06.699Z,78.95
2022-11-05T23:16:51.849Z,79.33
2022-11-05T23:19:37.317Z,79.12
2022-11-05T23:22:24.519Z,79.28
2022-11-05T23:24:52.866Z,79.43
2022-11-05T23:27:19.347Z,79.11
2022-11-05T23:29:46.066Z,78.93
2022-11-05T23:32:24.691Z,79.05
2022-11-05T23:34:54.626Z,78.82
2022-11-05T23:37:41.253Z,79.03
2022-11-05T23:40:10.574Z,79.10
2022-11-05T23:42:55.845Z,79.05
2022-11-05T23:45:41.263Z,79.14
2022-11-05T23:48:18.304Z,79.43
2022-11-05T23:50:49.278Z,79.04
2022-11-05T23:53:15.882Z,79.20
2022-11-05T23:55:42.743Z,79.36
2022-11-05T23:58:10.495Z,79.12
